createdAt,value
2019-04-04T00:00:31.697Z,30.27
2019-04-04T00:03:01.433Z,28.13
2019-04-04T00:05:31.078Z,28.20
2019-04-04T00:08:02.680Z,27.60
2019-04-04T00:10:32.849Z,26.77
2019-04-04T00:13:03.922Z,30.17
2019-04-04T00:15:34.599Z,28.97
2019-04-04T00:18:04.331Z,28.17
2019-04-04T00:20:34.163Z,29.00
2019-04-04T00:23:05.021Z,29.77
2019-04-04T00:25:35.353Z,29.13
2019-04-04T00:28:05.034Z,33.23
2019-04-04T00:30:34.771Z,30.90
2019-04-04T00:33:04.530Z,27.83
2019-04-04T00:35:34.187Z,29.97
2019-04-04T00:38:06.693Z,33.70
2019-04-04T00:40:35.124Z,31.77
2019-04-04T00:43:05.882Z,32.63
2019-04-04T00:45:35.584Z,33.23
2019-04-04T00:48:05.352Z,33.27
2019-04-04T00:50:36.750Z,34.03
2019-04-04T00:53:06.409Z,34.43
2019-04-04T00:55:36.226Z,38.77
2019-04-04T00:58:05.913Z,37.97
2019-04-04T01:00:35.945Z,36.40
2019-04-04T01:03:05.567Z,41.60
2019-04-04T01:05:35.220Z,40.90
2019-04-04T01:08:06.648Z,39.23
2019-04-04T01:10:36.230Z,42.13
2019-04-04T01:13:05.842Z,39.50
2019-04-04T01:15:35.577Z,43.43
2019-04-04T01:18:17.182Z,40.60
2019-04-04T01:20:46.862Z,41.83
2019-04-04T01:23:17.050Z,39.90
2019-04-04T01:25:46.658Z,41.77
2019-04-04T01:28:16.314Z,41.00
2019-04-04T01:30:46.086Z,43.80
2019-04-04T01:33:15.742Z,42.80
2019-04-04T01:35:45.344Z,41.90
2019-04-04T01:38:15.037Z,43.80
2019-04-04T01:40:45.149Z,43.10
2019-04-04T01:43:14.778Z,41.90
2019-04-04T01:45:44.945Z,40.40
2019-04-04T01:48:14.707Z,39.10
2019-04-04T01:50:44.330Z,37.93
2019-04-04T01:53:14.005Z,43.90
2019-04-04T01:55:43.618Z,38.03
2019-04-04T01:58:13.223Z,43.53
2019-04-04T02:00:45.641Z,46.63
2019-04-04T02:03:14.169Z,46.87
2019-04-04T02:05:43.797Z,46.00
2019-04-04T02:08:13.555Z,47.77
2019-04-04T02:10:43.443Z,48.37
2019-04-04T02:13:13.110Z,49.60
2019-04-04T02:15:44.597Z,51.40
2019-04-04T02:18:14.074Z,49.43
2019-04-04T02:20:43.725Z,47.87
2019-04-04T02:23:13.346Z,46.77
2019-04-04T02:25:43.001Z,48.27
2019-04-04T02:28:12.644Z,51.50
2019-04-04T02:30:42.357Z,53.47
2019-04-04T02:33:12.019Z,50.70
2019-04-04T02:35:43.723Z,52.60
2019-04-04T02:38:13.017Z,51.43
2019-04-04T02:40:42.723Z,53.07
2019-04-04T02:43:12.366Z,47.57
2019-04-04T02:45:42.089Z,51.97
2019-04-04T02:48:13.085Z,46.57
2019-04-04T02:50:42.692Z,43.23
2019-04-04T02:53:12.603Z,45.10
2019-04-04T02:55:42.295Z,47.33
2019-04-04T02:58:15.113Z,45.77
2019-04-04T03:00:43.234Z,44.10
2019-04-04T03:03:16.205Z,44.67
2019-04-04T03:05:50.820Z,42.30
2019-04-04T03:08:18.377Z,45.40
2019-04-04T03:10:49.396Z,42.47
2019-04-04T03:13:19.395Z,41.00
2019-04-04T03:15:50.204Z,41.73
2019-04-04T03:18:21.161Z,40.30
2019-04-04T03:20:50.847Z,38.43
2019-04-04T03:23:20.490Z,35.10
2019-04-04T03:25:50.194Z,37.13
2019-04-04T03:28:19.885Z,35.67
2019-04-04T03:31:00.627Z,36.10
2019-04-04T03:33:29.194Z,35.40
2019-04-04T03:35:59.877Z,35.57
2019-04-04T03:38:26.828Z,33.37
2019-04-04T03:40:59.779Z,34.57
2019-04-04T03:43:29.754Z,33.30
2019-04-04T03:46:01.327Z,32.93
2019-04-04T03:48:30.889Z,27.67
2019-04-04T03:51:03.461Z,29.20
2019-04-04T03:53:31.967Z,29.57
2019-04-04T03:56:01.869Z,29.20
2019-04-04T03:58:32.078Z,30.57
2019-04-04T04:01:01.703Z,26.37
2019-04-04T04:03:31.407Z,29.57
2019-04-04T04:06:01.121Z,27.80
2019-04-04T04:08:30.919Z,27.80
2019-04-04T04:11:04.824Z,29.57
2019-04-04T04:13:32.990Z,28.13
2019-04-04T04:16:03.842Z,27.47
2019-04-04T04:18:33.652Z,27.27
2019-04-04T04:21:03.353Z,25.70
2019-04-04T04:23:32.998Z,24.10
2019-04-04T04:26:02.622Z,25.87
2019-04-04T04:28:32.326Z,25.53
2019-04-04T04:31:02.626Z,25.80
2019-04-04T04:33:32.419Z,25.00
2019-04-04T04:36:02.067Z,26.40
2019-04-04T04:38:31.761Z,25.10
2019-04-04T04:41:01.474Z,27.77
2019-04-04T04:43:33.510Z,25.27
2019-04-04T04:46:02.654Z,28.00
2019-04-04T04:48:32.260Z,29.87
2019-04-04T04:51:01.878Z,28.03
2019-04-04T04:53:31.482Z,30.00
2019-04-04T04:56:01.446Z,29.43
2019-04-04T04:58:31.073Z,32.67
2019-04-04T05:01:00.899Z,30.90
2019-04-04T05:03:30.522Z,29.50
2019-04-04T05:06:02.317Z,29.50
2019-04-04T05:08:31.589Z,30.00
2019-04-04T05:11:01.226Z,30.73
2019-04-04T05:13:30.885Z,30.10
2019-04-04T05:16:03.959Z,28.90
2019-04-04T05:18:31.836Z,29.17
2019-04-04T05:21:02.478Z,32.87
2019-04-04T05:23:32.338Z,30.17
2019-04-04T05:26:03.061Z,31.10
2019-04-04T05:28:33.014Z,31.30
2019-04-04T05:31:02.630Z,33.50
2019-04-04T05:33:32.274Z,32.83
2019-04-04T05:36:05.006Z,29.00
2019-04-04T05:38:34.000Z,27.93
2019-04-04T05:41:03.772Z,28.73
2019-04-04T05:43:37.060Z,28.17
2019-04-04T05:46:05.196Z,27.60
2019-04-04T05:48:34.820Z,30.93
2019-04-04T05:51:04.520Z,31.17
2019-04-04T05:53:35.326Z,30.93
2019-04-04T05:56:06.548Z,29.23
2019-04-04T05:58:36.441Z,27.10
2019-04-04T06:01:07.186Z,28.23
2019-04-04T06:03:36.892Z,27.57
2019-04-04T06:06:06.544Z,27.50
2019-04-04T06:08:39.195Z,27.07
2019-04-04T06:11:07.706Z,25.20
2019-04-04T06:13:37.501Z,25.87
2019-04-04T06:16:07.155Z,25.07
2019-04-04T06:18:36.802Z,24.87
2019-04-04T06:21:07.533Z,24.03
2019-04-04T06:23:37.195Z,23.83
2019-04-04T06:26:07.749Z,24.43
2019-04-04T06:28:37.430Z,23.27
2019-04-04T06:31:07.050Z,23.63
2019-04-04T06:33:36.753Z,23.10
2019-04-04T06:36:06.369Z,21.30
2019-04-04T06:38:35.974Z,21.97
2019-04-04T06:41:05.585Z,22.80
2019-04-04T06:43:35.201Z,21.77
2019-04-04T06:46:05.146Z,24.13
2019-04-04T06:48:36.158Z,23.17
2019-04-04T06:51:05.758Z,21.43
2019-04-04T06:53:35.413Z,19.27
2019-04-04T06:56:05.035Z,21.73
2019-04-04T06:58:34.644Z,22.97
2019-04-04T07:01:04.225Z,24.07
2019-04-04T07:03:33.833Z,22.07
2019-04-04T07:06:03.592Z,20.00
2019-04-04T07:08:33.234Z,20.70
2019-04-04T07:11:04.457Z,24.67
2019-04-04T07:13:42.152Z,21.43
2019-04-04T07:16:08.038Z,23.10
2019-04-04T07:18:36.848Z,22.47
2019-04-04T07:21:06.550Z,21.37
2019-04-04T07:23:36.165Z,21.93
2019-04-04T07:26:05.861Z,18.93
2019-04-04T07:28:35.515Z,21.03
2019-04-04T07:31:05.227Z,19.83
2019-04-04T07:33:34.910Z,18.83
2019-04-04T07:36:04.600Z,21.50
2019-04-04T07:38:35.119Z,19.17
2019-04-04T07:41:06.130Z,19.40
2019-04-04T07:43:39.192Z,18.47
2019-04-04T07:46:16.066Z,20.67
2019-04-04T07:48:39.303Z,20.63
2019-04-04T07:51:08.941Z,21.13
2019-04-04T07:53:38.585Z,20.07
2019-04-04T07:56:09.270Z,19.23
2019-04-04T07:58:38.881Z,18.50
2019-04-04T08:01:08.476Z,18.37
2019-04-04T08:03:38.122Z,19.77
2019-04-04T08:06:07.914Z,19.37
2019-04-04T08:08:37.559Z,22.17
2019-04-04T08:11:07.262Z,23.90
2019-04-04T08:13:36.882Z,23.40
2019-04-04T08:16:06.679Z,21.73
2019-04-04T08:18:36.307Z,22.70
2019-04-04T08:21:05.999Z,21.43
2019-04-04T08:23:35.668Z,23.87
2019-04-04T08:26:05.445Z,23.63
2019-04-04T08:28:35.088Z,22.47
2019-04-04T08:31:04.789Z,25.83
2019-04-04T08:33:34.385Z,27.03
2019-04-04T08:36:06.258Z,24.83
2019-04-04T08:38:35.362Z,30.40
2019-04-04T08:41:05.197Z,26.83
2019-04-04T08:43:34.815Z,25.03
2019-04-04T08:46:04.495Z,27.10
2019-04-04T08:48:34.110Z,26.50
2019-04-04T08:51:03.914Z,26.63
2019-04-04T08:53:39.962Z,24.30
2019-04-04T08:56:05.246Z,27.50
2019-04-04T08:58:34.907Z,21.50
2019-04-04T09:01:05.074Z,26.23
2019-04-04T09:03:34.714Z,25.60
2019-04-04T09:06:04.468Z,27.07
2019-04-04T09:08:34.161Z,26.10
2019-04-04T09:11:04.062Z,23.30
2019-04-04T09:13:33.778Z,27.70
2019-04-04T09:16:03.469Z,27.57
2019-04-04T09:18:33.068Z,27.50
2019-04-04T09:21:02.671Z,32.93
2019-04-04T09:23:32.298Z,30.13
2019-04-04T09:26:05.834Z,29.07
2019-04-04T09:28:34.712Z,25.17
2019-04-04T09:31:04.470Z,29.17
2019-04-04T09:33:34.098Z,30.03
2019-04-04T09:36:03.861Z,27.57
2019-04-04T09:38:33.522Z,31.63
2019-04-04T09:41:03.155Z,31.17
2019-04-04T09:43:32.838Z,32.97
2019-04-04T09:46:02.461Z,28.30
2019-04-04T09:48:32.071Z,28.63
2019-04-04T09:51:01.698Z,26.73
2019-04-04T09:53:31.342Z,24.73
2019-04-04T09:56:00.958Z,26.77
2019-04-04T09:58:30.558Z,25.13
2019-04-04T10:01:00.460Z,20.30
2019-04-04T10:03:30.176Z,25.73
2019-04-04T10:06:08.743Z,27.53
2019-04-04T10:08:38.942Z,25.57
2019-04-04T10:11:08.710Z,31.50
2019-04-04T10:13:41.950Z,30.90
2019-04-04T10:16:11.598Z,35.03
2019-04-04T10:18:41.345Z,38.87
2019-04-04T10:21:12.373Z,35.20
2019-04-04T10:23:42.318Z,32.17
2019-04-04T10:26:11.934Z,37.57
2019-04-04T10:28:41.586Z,36.57
2019-04-04T10:31:11.338Z,37.07
2019-04-04T10:33:42.343Z,36.10
2019-04-04T10:36:12.324Z,32.43
2019-04-04T10:38:41.967Z,31.80
2019-04-04T10:41:11.574Z,32.40
2019-04-04T10:43:41.192Z,34.53
2019-04-04T10:46:10.801Z,32.07
2019-04-04T10:48:40.451Z,33.53
2019-04-04T10:51:10.096Z,31.53
2019-04-04T10:53:39.726Z,32.87
2019-04-04T10:56:09.418Z,31.87
2019-04-04T10:58:39.071Z,25.57
2019-04-04T11:01:08.860Z,23.17
2019-04-04T11:03:38.483Z,28.17
2019-04-04T11:06:08.093Z,28.37
2019-04-04T11:08:37.727Z,20.80
2019-04-04T11:11:07.414Z,19.37
2019-04-04T11:13:37.052Z,21.13
2019-04-04T11:16:06.659Z,17.27
2019-04-04T11:18:36.274Z,16.47
2019-04-04T11:21:06.044Z,14.53
2019-04-04T11:23:35.642Z,12.57
2019-04-04T11:26:05.522Z,12.63
2019-04-04T11:28:35.137Z,11.60
2019-04-04T11:31:05.912Z,11.77
2019-04-04T11:33:35.601Z,12.73
2019-04-04T11:36:05.281Z,12.63
2019-04-04T11:38:34.907Z,10.37
2019-04-04T11:41:04.600Z,11.07
2019-04-04T11:43:34.234Z,11.63
2019-04-04T11:46:03.905Z,11.20
2019-04-04T11:48:33.518Z,10.43
2019-04-04T11:51:03.150Z,10.67
2019-04-04T11:53:32.753Z,11.20
2019-04-04T11:56:02.397Z,11.10
2019-04-04T11:58:32.026Z,11.43
2019-04-04T12:01:04.319Z,13.17
2019-04-04T12:03:33.938Z,12.17
2019-04-04T12:06:03.666Z,13.47
2019-04-04T12:08:33.296Z,13.40
2019-04-04T12:11:03.252Z,13.33
2019-04-04T12:13:32.882Z,12.60
2019-04-04T12:16:02.519Z,12.23
2019-04-04T12:18:32.157Z,12.90
2019-04-04T12:21:01.767Z,14.60
2019-04-04T12:23:31.377Z,13.90
2019-04-04T12:26:01.018Z,14.73
2019-04-04T12:28:30.642Z,14.37
2019-04-04T12:31:00.450Z,11.00
2019-04-04T12:33:30.058Z,12.20
2019-04-04T12:35:59.722Z,12.80
2019-04-04T12:38:29.341Z,13.33
2019-04-04T12:40:58.954Z,12.77
2019-04-04T12:43:28.571Z,13.30
2019-04-04T12:45:58.254Z,12.07
2019-04-04T12:48:27.862Z,9.27
2019-04-04T12:50:58.437Z,11.17
2019-04-04T12:53:28.033Z,8.57
2019-04-04T12:55:57.634Z,11.33
2019-04-04T12:58:28.218Z,8.50
2019-04-04T13:00:57.854Z,8.60
2019-04-04T13:03:27.470Z,5.97
2019-04-04T13:05:57.078Z,6.10
2019-04-04T13:08:26.680Z,7.07
2019-04-04T13:10:56.281Z,7.50
2019-04-04T13:13:25.897Z,8.30
2019-04-04T13:15:55.521Z,6.97
2019-04-04T13:18:25.122Z,7.37
2019-04-04T13:20:54.834Z,9.60
2019-04-04T13:23:24.481Z,7.83
2019-04-04T13:25:55.152Z,8.23
2019-04-04T13:28:25.062Z,9.00
2019-04-04T13:30:54.705Z,5.93
2019-04-04T13:33:24.299Z,5.53
2019-04-04T13:35:53.975Z,5.10
2019-04-04T13:38:23.562Z,6.27
2019-04-04T13:40:53.318Z,5.30
2019-04-04T13:43:23.914Z,3.80
2019-04-04T13:45:53.544Z,5.17
2019-04-04T13:48:23.246Z,4.67
2019-04-04T13:50:53.642Z,5.63
2019-04-04T13:53:25.439Z,5.63
2019-04-04T13:55:56.494Z,5.20
2019-04-04T13:58:26.006Z,4.50
2019-04-04T14:00:55.625Z,3.97
2019-04-04T14:03:25.257Z,4.43
2019-04-04T14:05:54.912Z,5.73
2019-04-04T14:08:24.570Z,3.80
2019-04-04T14:10:58.380Z,3.27
2019-04-04T14:13:26.237Z,4.53
2019-04-04T14:15:56.157Z,4.63
2019-04-04T14:18:38.236Z,4.63
2019-04-04T14:21:03.999Z,5.63
2019-04-04T14:23:28.793Z,4.43
2019-04-04T14:25:59.967Z,4.80
2019-04-04T14:28:29.793Z,4.80
2019-04-04T14:30:59.631Z,4.27
2019-04-04T14:33:29.246Z,3.73
2019-04-04T14:35:58.858Z,4.97
2019-04-04T14:38:28.491Z,5.17
2019-04-04T14:41:10.216Z,5.03
2019-04-04T14:43:30.059Z,5.07
2019-04-04T14:46:00.289Z,4.50
2019-04-04T14:48:30.009Z,4.97
2019-04-04T14:50:59.715Z,5.13
2019-04-04T14:53:29.706Z,4.83
2019-04-04T14:56:01.255Z,4.50
2019-04-04T14:58:32.285Z,5.63
2019-04-04T15:01:02.045Z,5.07
2019-04-04T15:03:31.939Z,5.73
2019-04-04T15:06:02.246Z,5.80
2019-04-04T15:08:32.529Z,5.60
2019-04-04T15:11:02.727Z,5.33
2019-04-04T15:13:32.621Z,5.30
2019-04-04T15:16:12.877Z,5.87
2019-04-04T15:18:43.751Z,5.67
2019-04-04T15:21:13.762Z,6.77
2019-04-04T15:23:44.831Z,5.70
2019-04-04T15:26:15.064Z,5.90
2019-04-04T15:28:45.027Z,6.47
2019-04-04T15:31:15.289Z,6.30
2019-04-04T15:33:45.753Z,5.23
2019-04-04T15:36:15.971Z,5.60
2019-04-04T15:38:46.049Z,6.60
2019-04-04T15:41:17.137Z,6.43
2019-04-04T15:43:47.972Z,6.63
2019-04-04T15:46:18.225Z,5.97
2019-04-04T15:48:48.084Z,6.17
2019-04-04T15:51:17.890Z,6.23
2019-04-04T15:53:47.705Z,5.87
2019-04-04T15:56:17.827Z,6.07
2019-04-04T15:58:47.476Z,6.97
2019-04-04T16:01:17.277Z,6.50
2019-04-04T16:03:46.985Z,6.07
2019-04-04T16:06:16.791Z,6.40
2019-04-04T16:08:46.957Z,5.53
2019-04-04T16:11:16.986Z,4.93
2019-04-04T16:13:46.657Z,6.67
2019-04-04T16:16:16.323Z,5.60
2019-04-04T16:18:45.993Z,6.30
2019-04-04T16:21:15.701Z,5.67
2019-04-04T16:23:45.449Z,6.47
2019-04-04T16:26:15.218Z,5.77
2019-04-04T16:28:44.949Z,5.00
2019-04-04T16:31:14.722Z,6.10
2019-04-04T16:33:44.912Z,5.23
2019-04-04T16:36:14.719Z,5.73
2019-04-04T16:38:45.607Z,6.23
2019-04-04T16:41:15.745Z,5.40
2019-04-04T16:43:46.172Z,5.33
2019-04-04T16:46:26.927Z,6.10
2019-04-04T16:49:04.166Z,5.87
2019-04-04T16:51:41.302Z,6.27
2019-04-04T16:54:21.928Z,5.77
2019-04-04T16:57:00.054Z,5.17
2019-04-04T16:59:36.717Z,6.33
2019-04-04T17:02:15.167Z,6.17
2019-04-04T17:04:57.447Z,5.67
2019-04-04T17:07:34.067Z,5.33
2019-04-04T17:10:14.932Z,5.77
2019-04-04T17:12:45.576Z,5.43
2019-04-04T17:15:16.471Z,5.37
2019-04-04T17:17:51.645Z,6.30
2019-04-04T17:20:21.623Z,5.73
2019-04-04T17:22:53.178Z,6.07
2019-04-04T17:25:25.287Z,6.27
2019-04-04T17:27:59.115Z,6.03
2019-04-04T17:30:39.114Z,5.63
2019-04-04T17:33:18.451Z,6.23
2019-04-04T17:35:48.745Z,5.43
2019-04-04T17:38:22.881Z,5.03
2019-04-04T17:40:53.069Z,5.63
2019-04-04T17:43:25.291Z,5.70
2019-04-04T17:45:57.755Z,5.83
2019-04-04T17:48:38.945Z,5.60
2019-04-04T17:51:10.180Z,5.20
2019-04-04T17:53:40.254Z,5.95
2019-04-04T17:56:10.324Z,5.57
2019-04-04T17:58:40.451Z,5.30
2019-04-04T18:01:12.157Z,6.23
2019-04-04T18:03:42.111Z,5.70
2019-04-04T18:06:11.797Z,5.00
2019-04-04T18:08:41.543Z,6.07
2019-04-04T18:11:11.197Z,4.90
2019-04-04T18:13:40.938Z,5.27
2019-04-04T18:16:10.625Z,6.13
2019-04-04T18:18:40.266Z,5.57
2019-04-04T18:21:10.182Z,5.70
2019-04-04T18:23:39.850Z,5.80
2019-04-04T18:26:09.696Z,6.23
2019-04-04T18:28:39.762Z,4.90
2019-04-04T18:31:09.650Z,5.10
2019-04-04T18:33:39.381Z,5.17
2019-04-04T18:36:09.345Z,5.07
2019-04-04T18:38:39.088Z,6.37
2019-04-04T18:41:09.997Z,5.27
2019-04-04T18:43:39.970Z,6.07
2019-04-04T18:46:09.910Z,4.93
2019-04-04T18:48:39.847Z,5.37
2019-04-04T18:51:09.615Z,5.23
2019-04-04T18:53:39.608Z,5.10
2019-04-04T18:56:09.741Z,5.13
2019-04-04T18:58:39.717Z,5.23
2019-04-04T19:01:09.708Z,6.63
2019-04-04T19:03:39.513Z,6.83
2019-04-04T19:06:11.388Z,6.17
2019-04-04T19:08:41.439Z,6.97
2019-04-04T19:11:11.410Z,7.77
2019-04-04T19:13:44.422Z,7.40
2019-04-04T19:16:12.815Z,7.60
2019-04-04T19:18:42.679Z,9.53
2019-04-04T19:21:12.628Z,8.70
2019-04-04T19:23:48.973Z,9.03
2019-04-04T19:26:14.234Z,9.20
2019-04-04T19:28:44.319Z,9.47
2019-04-04T19:31:15.465Z,10.97
2019-04-04T19:33:46.963Z,10.90
2019-04-04T19:36:16.773Z,10.17
2019-04-04T19:38:46.914Z,12.53
2019-04-04T19:41:16.774Z,10.43
2019-04-04T19:43:46.691Z,11.20
2019-04-04T19:46:16.514Z,10.90
2019-04-04T19:48:48.344Z,11.63
2019-04-04T19:51:18.203Z,11.60
2019-04-04T19:53:49.212Z,11.23
2019-04-04T19:56:19.082Z,11.23
2019-04-04T19:58:48.860Z,12.53
2019-04-04T20:01:18.464Z,12.00
2019-04-04T20:03:48.071Z,12.03
2019-04-04T20:06:17.724Z,13.03
2019-04-04T20:08:50.892Z,13.50
2019-04-04T20:11:18.838Z,14.83
2019-04-04T20:13:48.480Z,12.77
2019-04-04T20:16:18.077Z,13.80
2019-04-04T20:18:47.718Z,13.87
2019-04-04T20:21:17.343Z,13.03
2019-04-04T20:23:46.966Z,14.53
2019-04-04T20:26:16.575Z,16.70
2019-04-04T20:28:46.222Z,18.57
2019-04-04T20:31:15.842Z,17.00
2019-04-04T20:33:45.460Z,17.70
2019-04-04T20:36:15.056Z,18.10
2019-04-04T20:38:44.807Z,19.83
2019-04-04T20:41:16.351Z,17.53
2019-04-04T20:43:46.895Z,20.17
2019-04-04T20:46:17.621Z,18.90
2019-04-04T20:48:47.238Z,19.00
2019-04-04T20:51:16.856Z,23.33
2019-04-04T20:53:46.540Z,21.47
2019-04-04T20:56:16.389Z,22.00
2019-04-04T20:58:46.038Z,23.70
2019-04-04T21:01:15.666Z,27.53
2019-04-04T21:03:45.298Z,22.93
2019-04-04T21:06:14.926Z,23.87
2019-04-04T21:08:44.537Z,25.27
2019-04-04T21:11:14.158Z,25.10
2019-04-04T21:13:55.473Z,25.70
2019-04-04T21:16:15.106Z,25.13
2019-04-04T21:18:44.758Z,29.90
2019-04-04T21:21:14.447Z,27.97
2019-04-04T21:23:44.181Z,30.47
2019-04-04T21:26:13.787Z,29.03
2019-04-04T21:28:43.520Z,29.13
2019-04-04T21:31:13.122Z,28.70
2019-04-04T21:33:42.735Z,30.07
2019-04-04T21:36:12.355Z,29.77
2019-04-04T21:38:41.975Z,32.80
2019-04-04T21:41:11.590Z,34.03
2019-04-04T21:43:42.298Z,34.13
2019-04-04T21:46:11.917Z,35.20
2019-04-04T21:48:41.544Z,32.33
2019-04-04T21:51:11.146Z,34.80
2019-04-04T21:53:40.752Z,34.77
2019-04-04T21:56:10.382Z,37.17
2019-04-04T21:58:40.011Z,34.43
2019-04-04T22:01:10.002Z,35.13
2019-04-04T22:03:39.618Z,39.43
2019-04-04T22:06:09.288Z,38.23
2019-04-04T22:08:38.984Z,37.30
2019-04-04T22:11:08.586Z,37.67
2019-04-04T22:13:38.206Z,38.50
2019-04-04T22:16:07.822Z,37.47
2019-04-04T22:18:37.516Z,38.80
2019-04-04T22:21:07.208Z,38.03
2019-04-04T22:23:37.005Z,38.50
2019-04-04T22:26:06.650Z,38.13
2019-04-04T22:28:36.266Z,38.30
2019-04-04T22:31:05.870Z,42.93
2019-04-04T22:33:35.574Z,40.17
2019-04-04T22:36:05.310Z,43.27
2019-04-04T22:38:34.933Z,43.53
2019-04-04T22:41:04.610Z,41.17
2019-04-04T22:43:34.289Z,42.93
2019-04-04T22:46:04.004Z,42.33
2019-04-04T22:48:33.633Z,41.13
2019-04-04T22:51:03.277Z,41.60
2019-04-04T22:53:32.880Z,42.87
2019-04-04T22:56:02.522Z,43.77
2019-04-04T22:58:32.136Z,43.23
2019-04-04T23:01:01.762Z,41.87
2019-04-04T23:03:31.538Z,42.43
2019-04-04T23:06:01.137Z,43.63
2019-04-04T23:08:30.766Z,40.70
2019-04-04T23:11:00.369Z,46.40
2019-04-04T23:13:30.027Z,45.93
2019-04-04T23:15:59.646Z,44.50
2019-04-04T23:18:29.285Z,44.30
2019-04-04T23:20:58.953Z,45.40
2019-04-04T23:23:28.565Z,45.07
2019-04-04T23:25:58.178Z,46.40
2019-04-04T23:28:27.801Z,41.97
2019-04-04T23:30:57.441Z,48.60
2019-04-04T23:33:27.078Z,43.87
2019-04-04T23:35:56.745Z,41.83
2019-04-04T23:38:26.369Z,46.20
2019-04-04T23:40:55.959Z,42.47
2019-04-04T23:43:25.582Z,40.37
2019-04-04T23:45:55.266Z,43.27
2019-04-04T23:48:24.905Z,44.50
2019-04-04T23:50:54.494Z,46.17
2019-04-04T23:53:24.132Z,41.43
2019-04-04T23:55:53.741Z,44.47
2019-04-04T23:58:23.344Z,42.80
